Lemhi County Airport
KSMN : now visible

Airfield :











YOU CAN JOIN US ON...

 
LOGIN :

Register | Disclaimer

   EN    FR    IT 

 









Legend :    VFR   Marginal VFR   IFR   Intensive IFR   Very Intensive IFR
Visi :
Ceiling :
>= 8 km
>= 3000ft
5 to 8 km
1000 to 3000 ft
1500m to 5 km
500 to 1000 ft
800 to 1500m
200 to 500 ft
< 800m
< 200 ft
Symbols :   Thunderstorms  Fog  Heavy snow  Heavy precipitations  Wind > 20 kt







- Airport Elevation : 4043 ft


KSMN - Lemhi County

CURRENT METAR :
  • 181056Z AUTO 00000KT 10SM OVC100 08/07 A2994 RMK AO2 SLP132 T00780067 PNO $

EXPIRED METARs :
  • 180956Z AUTO 00000KT 10SM OVC090 08/07 A2995 RMK AO2 SLP135 T00830067 PNO $
  • 180856Z AUTO 00000KT 10SM OVC100 09/06 A2996 RMK AO2 SLP140 6//// T00890061 56005 PNO $

TAF KSMN
Valid from the 18 at 06:00 until the 19 at 06:00 UTC


180520Z 1806/1906 VRB02KT P6SM BKN120
FM190000 VRB02KT P6SM VCSH BKN080
No reported NOTAMs for that airfield.



MET'MAP, your aeronautical weather chart ! - Copyright ORBIFLY December 2007 - Disclaimer

ORBIFLY MET'MAP TEAM :

Programming & Development : Alexandra Zaïnal
Concept & Development : Baudouin d'Aumeries
Co-Development & Prog : Marc-Olivier Méhu
Technical & hardware support : Manuel Goepfert

Contact : metmap@orbifly.com




SOURCES & CREDITS :

   NOAA       Earth
Advisory